sensor_id;sensor_type;location;lat;lon;timestamp;pressure;altitude;pressure_sealevel;temperature;humidity
11856;BME280;5987;53.140;8.904;2022-10-18T00:01:47;102566.97;;;12.95;100.00
11856;BME280;5987;53.140;8.904;2022-10-18T00:04:51;102573.16;;;12.93;100.00
11856;BME280;5987;53.140;8.904;2022-10-18T00:07:54;102573.19;;;12.90;100.00
11856;BME280;5987;53.140;8.904;2022-10-18T00:10:58;102568.91;;;12.85;100.00
11856;BME280;5987;53.140;8.904;2022-10-18T00:14:03;102572.50;;;12.81;100.00
11856;BME280;5987;53.140;8.904;2022-10-18T00:17:06;102573.38;;;12.80;100.00
11856;BME280;5987;53.140;8.904;2022-10-18T00:20:12;102573.44;;;12.77;100.00
11856;BME280;5987;53.140;8.904;2022-10-18T00:23:16;102570.00;;;12.72;100.00
11856;BME280;5987;53.140;8.904;2022-10-18T00:26:22;102566.56;;;12.67;100.00
11856;BME280;5987;53.140;8.904;2022-10-18T00:29:27;102583.31;;;12.66;100.00
11856;BME280;5987;53.140;8.904;2022-10-18T00:32:35;102575.50;;;12.60;100.00
11856;BME280;5987;53.140;8.904;2022-10-18T00:35:39;102584.34;;;12.56;100.00
11856;BME280;5987;53.140;8.904;2022-10-18T00:38:44;102587.03;;;12.52;100.00
11856;BME280;5987;53.140;8.904;2022-10-18T00:41:48;102587.06;;;12.51;100.00
11856;BME280;5987;53.140;8.904;2022-10-18T00:45:22;102581.06;;;12.41;100.00
11856;BME280;5987;53.140;8.904;2022-10-18T00:48:26;102582.75;;;12.45;100.00
11856;BME280;5987;53.140;8.904;2022-10-18T00:51:34;102584.66;;;12.37;100.00
11856;BME280;5987;53.140;8.904;2022-10-18T00:54:42;102578.56;;;12.32;100.00
11856;BME280;5987;53.140;8.904;2022-10-18T00:57:47;102586.63;;;12.23;100.00
11856;BME280;5987;53.140;8.904;2022-10-18T01:00:53;102583.13;;;12.21;100.00
11856;BME280;5987;53.140;8.904;2022-10-18T01:03:56;102585.84;;;12.17;100.00
11856;BME280;5987;53.140;8.904;2022-10-18T01:07:09;102585.03;;;12.14;100.00
11856;BME280;5987;53.140;8.904;2022-10-18T01:10:27;102586.75;;;12.15;100.00
11856;BME280;5987;53.140;8.904;2022-10-18T01:13:45;102599.06;;;12.14;100.00
11856;BME280;5987;53.140;8.904;2022-10-18T01:17:00;102585.94;;;12.11;100.00
11856;BME280;5987;53.140;8.904;2022-10-18T01:20:37;102593.00;;;12.08;100.00
11856;BME280;5987;53.140;8.904;2022-10-18T01:27:49;102598.38;;;12.01;100.00
11856;BME280;5987;53.140;8.904;2022-10-18T01:30:59;102588.75;;;11.99;100.00
11856;BME280;5987;53.140;8.904;2022-10-18T01:34:07;102590.50;;;12.00;100.00
11856;BME280;5987;53.140;8.904;2022-10-18T01:37:16;102593.97;;;12.02;100.00
11856;BME280;5987;53.140;8.904;2022-10-18T01:40:23;102591.34;;;12.00;100.00
11856;BME280;5987;53.140;8.904;2022-10-18T01:43:29;102590.47;;;12.01;100.00
11856;BME280;5987;53.140;8.904;2022-10-18T01:46:36;102580.78;;;12.02;100.00
11856;BME280;5987;53.140;8.904;2022-10-18T01:49:42;102592.28;;;11.96;100.00
11856;BME280;5987;53.140;8.904;2022-10-18T01:52:50;102587.03;;;11.95;100.00
11856;BME280;5987;53.140;8.904;2022-10-18T01:56:17;102582.63;;;11.95;100.00
11856;BME280;5987;53.140;8.904;2022-10-18T01:59:38;102582.63;;;11.95;100.00
11856;BME280;5987;53.140;8.904;2022-10-18T02:02:51;102580.00;;;11.95;100.00
11856;BME280;5987;53.140;8.904;2022-10-18T02:06:07;102573.03;;;11.93;100.00
11856;BME280;5987;53.140;8.904;2022-10-18T02:09:18;102577.41;;;11.94;100.00
11856;BME280;5987;53.140;8.904;2022-10-18T02:12:28;102569.53;;;11.91;100.00
11856;BME280;5987;53.140;8.904;2022-10-18T02:15:40;102567.78;;;11.90;100.00
11856;BME280;5987;53.140;8.904;2022-10-18T02:18:54;102568.69;;;11.89;100.00
11856;BME280;5987;53.140;8.904;2022-10-18T02:22:01;102573.97;;;11.87;100.00
11856;BME280;5987;53.140;8.904;2022-10-18T02:25:13;102570.47;;;11.87;100.00
11856;BME280;5987;53.140;8.904;2022-10-18T02:28:19;102567.00;;;11.83;100.00
11856;BME280;5987;53.140;8.904;2022-10-18T02:31:34;102558.38;;;11.73;100.00
11856;BME280;5987;53.140;8.904;2022-10-18T02:34:46;102562.00;;;11.66;100.00
11856;BME280;5987;53.140;8.904;2022-10-18T02:37:53;102557.69;;;11.60;100.00
11856;BME280;5987;53.140;8.904;2022-10-18T02:40:59;102556.75;;;11.64;100.00
11856;BME280;5987;53.140;8.904;2022-10-18T02:44:03;102558.59;;;11.58;100.00
11856;BME280;5987;53.140;8.904;2022-10-18T02:47:09;102548.94;;;11.57;100.00
11856;BME280;5987;53.140;8.904;2022-10-18T02:50:15;102540.19;;;11.56;100.00
11856;BME280;5987;53.140;8.904;2022-10-18T02:53:18;102544.63;;;11.51;100.00
11856;BME280;5987;53.140;8.904;2022-10-18T02:56:22;102537.66;;;11.47;100.00
11856;BME280;5987;53.140;8.904;2022-10-18T02:59:26;102553.44;;;11.48;100.00
11856;BME280;5987;53.140;8.904;2022-10-18T03:02:29;102553.44;;;11.47;100.00
11856;BME280;5987;53.140;8.904;2022-10-18T03:05:34;102549.09;;;11.44;100.00
11856;BME280;5987;53.140;8.904;2022-10-18T03:08:38;102540.38;;;11.42;100.00
11856;BME280;5987;53.140;8.904;2022-10-18T03:11:41;102547.44;;;11.37;100.00
11856;BME280;5987;53.140;8.904;2022-10-18T03:14:45;102547.47;;;11.34;100.00
11856;BME280;5987;53.140;8.904;2022-10-18T03:17:48;102555.38;;;11.34;100.00
11856;BME280;5987;53.140;8.904;2022-10-18T03:20:53;102549.22;;;11.35;100.00
11856;BME280;5987;53.140;8.904;2022-10-18T03:23:57;102554.44;;;11.40;100.00
11856;BME280;5987;53.140;8.904;2022-10-18T03:27:00;102559.66;;;11.41;100.00
11856;BME280;5987;53.140;8.904;2022-10-18T03:30:07;102553.56;;;11.38;100.00
11856;BME280;5987;53.140;8.904;2022-10-18T03:33:12;102555.41;;;11.32;100.00
11856;BME280;5987;53.140;8.904;2022-10-18T03:36:17;102556.31;;;11.28;100.00
11856;BME280;5987;53.140;8.904;2022-10-18T03:39:21;102558.91;;;11.31;100.00
11856;BME280;5987;53.140;8.904;2022-10-18T03:42:25;102558.03;;;11.31;100.00
11856;BME280;5987;53.140;8.904;2022-10-18T03:45:28;102559.75;;;11.32;100.00
11856;BME280;5987;53.140;8.904;2022-10-18T03:48:32;102545.69;;;11.36;100.00
11856;BME280;5987;53.140;8.904;2022-10-18T03:51:37;102552.66;;;11.40;100.00
11856;BME280;5987;53.140;8.904;2022-10-18T03:54:41;102549.81;;;11.57;100.00
11856;BME280;5987;53.140;8.904;2022-10-18T03:57:45;102540.88;;;11.71;100.00
11856;BME280;5987;53.140;8.904;2022-10-18T04:00:49;102545.06;;;11.82;100.00
11856;BME280;5987;53.140;8.904;2022-10-18T04:03:53;102534.47;;;11.89;100.00
11856;BME280;5987;53.140;8.904;2022-10-18T04:06:58;102544.94;;;11.92;100.00
11856;BME280;5987;53.140;8.904;2022-10-18T04:10:01;102556.34;;;11.94;100.00
11856;BME280;5987;53.140;8.904;2022-10-18T04:13:06;102550.19;;;11.95;100.00
11856;BME280;5987;53.140;8.904;2022-10-18T04:16:10;102545.78;;;11.95;100.00
11856;BME280;5987;53.140;8.904;2022-10-18T04:19:14;102550.19;;;11.95;100.00
11856;BME280;5987;53.140;8.904;2022-10-18T04:22:19;102551.06;;;11.94;100.00
11856;BME280;5987;53.140;8.904;2022-10-18T04:25:23;102550.19;;;11.93;100.00
11856;BME280;5987;53.140;8.904;2022-10-18T04:28:27;102554.59;;;11.94;100.00
11856;BME280;5987;53.140;8.904;2022-10-18T04:31:30;102553.72;;;11.94;100.00
11856;BME280;5987;53.140;8.904;2022-10-18T04:34:34;102544.03;;;11.96;100.00
11856;BME280;5987;53.140;8.904;2022-10-18T04:37:39;102545.78;;;11.97;100.00
11856;BME280;5987;53.140;8.904;2022-10-18T04:40:43;102539.59;;;11.98;100.00
11856;BME280;5987;53.140;8.904;2022-10-18T04:43:47;102541.34;;;11.99;100.00
11856;BME280;5987;53.140;8.904;2022-10-18T04:46:50;102548.41;;;11.98;100.00
11856;BME280;5987;53.140;8.904;2022-10-18T04:49:54;102543.97;;;12.00;100.00
11856;BME280;5987;53.140;8.904;2022-10-18T04:52:59;102559.72;;;12.04;100.00
11856;BME280;5987;53.140;8.904;2022-10-18T04:56:02;102554.44;;;12.04;100.00
11856;BME280;5987;53.140;8.904;2022-10-18T04:59:06;102554.41;;;12.05;100.00
11856;BME280;5987;53.140;8.904;2022-10-18T05:02:09;102548.25;;;12.06;100.00
11856;BME280;5987;53.140;8.904;2022-10-18T05:05:13;102539.47;;;12.07;100.00
11856;BME280;5987;53.140;8.904;2022-10-18T05:08:18;102544.75;;;12.07;100.00
11856;BME280;5987;53.140;8.904;2022-10-18T05:11:22;102538.63;;;12.07;100.00
11856;BME280;5987;53.140;8.904;2022-10-18T05:14:28;102545.63;;;12.06;100.00
11856;BME280;5987;53.140;8.904;2022-10-18T05:17:33;102550.03;;;12.06;100.00
11856;BME280;5987;53.140;8.904;2022-10-18T05:20:36;102550.91;;;12.06;100.00
11856;BME280;5987;53.140;8.904;2022-10-18T05:23:41;102556.13;;;12.08;100.00
11856;BME280;5987;53.140;8.904;2022-10-18T05:26:45;102544.69;;;12.10;100.00
11856;BME280;5987;53.140;8.904;2022-10-18T05:29:49;102543.81;;;12.11;100.00
11856;BME280;5987;53.140;8.904;2022-10-18T05:32:53;102551.72;;;12.11;100.00
11856;BME280;5987;53.140;8.904;2022-10-18T05:35:56;102563.13;;;12.10;100.00
11856;BME280;5987;53.140;8.904;2022-10-18T05:39:03;102559.63;;;12.10;100.00
11856;BME280;5987;53.140;8.904;2022-10-18T05:42:07;102565.81;;;12.07;100.00
11856;BME280;5987;53.140;8.904;2022-10-18T05:45:11;102568.44;;;12.07;100.00
11856;BME280;5987;53.140;8.904;2022-10-18T05:48:14;102562.31;;;12.07;100.00
11856;BME280;5987;53.140;8.904;2022-10-18T05:51:18;102565.84;;;12.06;100.00
11856;BME280;5987;53.140;8.904;2022-10-18T05:54:23;102562.31;;;12.07;100.00
11856;BME280;5987;53.140;8.904;2022-10-18T05:57:27;102562.28;;;12.08;100.00
11856;BME280;5987;53.140;8.904;2022-10-18T06:00:31;102557.03;;;12.05;100.00
11856;BME280;5987;53.140;8.904;2022-10-18T06:03:35;102564.94;;;12.07;100.00
11856;BME280;5987;53.140;8.904;2022-10-18T06:06:39;102570.19;;;12.08;100.00
11856;BME280;5987;53.140;8.904;2022-10-18T06:09:44;102571.06;;;12.07;100.00
11856;BME280;5987;53.140;8.904;2022-10-18T06:12:47;102572.84;;;12.05;100.00
11856;BME280;5987;53.140;8.904;2022-10-18T06:15:55;102572.81;;;12.08;100.00
11856;BME280;5987;53.140;8.904;2022-10-18T06:18:59;102565.84;;;12.06;100.00
11856;BME280;5987;53.140;8.904;2022-10-18T06:22:02;102570.22;;;12.07;100.00
11856;BME280;5987;53.140;8.904;2022-10-18T06:25:08;102575.38;;;12.13;100.00
11856;BME280;5987;53.140;8.904;2022-10-18T06:28:12;102571.13;;;12.04;100.00
11856;BME280;5987;53.140;8.904;2022-10-18T06:31:16;102591.22;;;12.10;100.00
11856;BME280;5987;53.140;8.904;2022-10-18T06:34:20;102590.38;;;12.08;100.00
11856;BME280;5987;53.140;8.904;2022-10-18T06:37:24;102591.28;;;12.07;100.00
11856;BME280;5987;53.140;8.904;2022-10-18T06:40:29;102592.97;;;12.09;100.00
11856;BME280;5987;53.140;8.904;2022-10-18T06:43:38;102589.53;;;12.06;100.00
11856;BME280;5987;53.140;8.904;2022-10-18T06:46:44;102589.59;;;11.99;100.00
11856;BME280;5987;53.140;8.904;2022-10-18T06:49:48;102590.47;;;12.01;100.00
11856;BME280;5987;53.140;8.904;2022-10-18T06:52:52;102601.97;;;11.93;100.00
11856;BME280;5987;53.140;8.904;2022-10-18T06:56:00;102610.84;;;11.86;100.00
11856;BME280;5987;53.140;8.904;2022-10-18T06:59:04;102606.41;;;11.89;100.00
11856;BME280;5987;53.140;8.904;2022-10-18T07:02:10;102604.59;;;11.96;100.00
11856;BME280;5987;53.140;8.904;2022-10-18T07:05:17;102616.03;;;11.90;100.00
11856;BME280;5987;53.140;8.904;2022-10-18T07:08:20;102620.41;;;11.90;100.00
11856;BME280;5987;53.140;8.904;2022-10-18T07:11:26;102621.47;;;11.78;100.00
11856;BME280;5987;53.140;8.904;2022-10-18T07:14:29;102628.44;;;11.80;100.00
11856;BME280;5987;53.140;8.904;2022-10-18T07:17:33;102640.84;;;11.72;100.00
11856;BME280;5987;53.140;8.904;2022-10-18T07:20:37;102647.03;;;11.68;100.00
11856;BME280;5987;53.140;8.904;2022-10-18T07:23:43;102644.31;;;11.76;100.00
11856;BME280;5987;53.140;8.904;2022-10-18T07:26:48;102656.63;;;11.72;100.00
11856;BME280;5987;53.140;8.904;2022-10-18T07:29:52;102661.00;;;11.73;100.00
11856;BME280;5987;53.140;8.904;2022-10-18T07:32:56;102650.34;;;11.82;100.00
11856;BME280;5987;53.140;8.904;2022-10-18T07:36:00;102658.34;;;11.75;100.00
11856;BME280;5987;53.140;8.904;2022-10-18T07:39:05;102661.13;;;11.62;100.00
11856;BME280;5987;53.140;8.904;2022-10-18T07:42:10;102667.25;;;11.63;100.00
11856;BME280;5987;53.140;8.904;2022-10-18T07:45:22;102668.13;;;11.65;100.00
11856;BME280;5987;53.140;8.904;2022-10-18T07:48:26;102650.59;;;11.62;100.00
11856;BME280;5987;53.140;8.904;2022-10-18T07:51:30;102661.09;;;11.65;100.00
11856;BME280;5987;53.140;8.904;2022-10-18T07:54:35;102673.44;;;11.59;100.00
11856;BME280;5987;53.140;8.904;2022-10-18T07:57:41;102677.84;;;11.57;100.00
11856;BME280;5987;53.140;8.904;2022-10-18T08:00:44;102681.25;;;11.66;100.00
11856;BME280;5987;53.140;8.904;2022-10-18T08:03:49;102686.53;;;11.65;100.00
11856;BME280;5987;53.140;8.904;2022-10-18T08:06:52;102681.31;;;11.59;100.00
11856;BME280;5987;53.140;8.904;2022-10-18T08:09:56;102689.38;;;11.46;100.00
11856;BME280;5987;53.140;8.904;2022-10-18T08:13:01;102678.84;;;11.43;100.00
11856;BME280;5987;53.140;8.904;2022-10-18T08:16:09;102670.97;;;11.43;100.00
11856;BME280;5987;53.140;8.904;2022-10-18T08:19:12;102677.06;;;11.48;100.00
11856;BME280;5987;53.140;8.904;2022-10-18T08:22:16;102665.69;;;11.48;100.00
11856;BME280;5987;53.140;8.904;2022-10-18T08:25:20;102657.63;;;11.62;100.00
11856;BME280;5987;53.140;8.904;2022-10-18T08:28:25;102672.50;;;11.66;100.00
11856;BME280;5987;53.140;8.904;2022-10-18T08:31:28;102673.19;;;11.80;100.00
11856;BME280;5987;53.140;8.904;2022-10-18T08:34:32;102663.38;;;11.95;100.00
11856;BME280;5987;53.140;8.904;2022-10-18T08:37:36;102667.41;;;12.24;100.00
11856;BME280;5987;53.140;8.904;2022-10-18T08:40:42;102674.53;;;12.15;100.00
11856;BME280;5987;53.140;8.904;2022-10-18T08:43:55;102659.22;;;12.42;100.00
11856;BME280;5987;53.140;8.904;2022-10-18T08:47:12;102661.94;;;12.36;100.00
11856;BME280;5987;53.140;8.904;2022-10-18T08:50:20;102667.34;;;12.27;100.00
11856;BME280;5987;53.140;8.904;2022-10-18T08:53:32;102661.81;;;12.45;100.00
11856;BME280;5987;53.140;8.904;2022-10-18T08:56:46;102660.97;;;12.43;100.00
11856;BME280;5987;53.140;8.904;2022-10-18T08:59:56;102668.59;;;12.62;100.00
11856;BME280;5987;53.140;8.904;2022-10-18T09:03:21;102659.38;;;12.87;100.00
11856;BME280;5987;53.140;8.904;2022-10-18T09:06:33;102660.06;;;12.97;100.00
11856;BME280;5987;53.140;8.904;2022-10-18T09:09:45;102667.38;;;12.83;100.00
11856;BME280;5987;53.140;8.904;2022-10-18T09:13:10;102658.50;;;12.87;100.00
11856;BME280;5987;53.140;8.904;2022-10-18T09:16:28;102666.66;;;12.72;100.00
11856;BME280;5987;53.140;8.904;2022-10-18T09:19:56;102655.94;;;12.82;100.00
11856;BME280;5987;53.140;8.904;2022-10-18T09:23:18;102650.75;;;12.78;100.00
11856;BME280;5987;53.140;8.904;2022-10-18T09:26:23;102668.06;;;12.93;100.00
11856;BME280;5987;53.140;8.904;2022-10-18T09:29:46;102652.06;;;13.02;100.00
11856;BME280;5987;53.140;8.904;2022-10-18T09:33:12;102648.34;;;13.15;100.00
11856;BME280;5987;53.140;8.904;2022-10-18T09:36:22;102649.19;;;13.16;100.00
11856;BME280;5987;53.140;8.904;2022-10-18T09:39:31;102641.84;;;13.33;100.00
11856;BME280;5987;53.140;8.904;2022-10-18T09:42:50;102648.81;;;13.39;100.00
11856;BME280;5987;53.140;8.904;2022-10-18T09:45:56;102638.97;;;13.47;100.00
11856;BME280;5987;53.140;8.904;2022-10-18T09:49:06;102627.38;;;13.54;100.00
11856;BME280;5987;53.140;8.904;2022-10-18T09:52:24;102635.06;;;13.65;100.00
11856;BME280;5987;53.140;8.904;2022-10-18T09:55:35;102625.31;;;13.69;100.00
11856;BME280;5987;53.140;8.904;2022-10-18T09:58:44;102627.81;;;13.75;100.00
11856;BME280;5987;53.140;8.904;2022-10-18T10:01:48;102634.03;;;13.72;100.00
11856;BME280;5987;53.140;8.904;2022-10-18T10:04:53;102631.63;;;14.04;100.00
11856;BME280;5987;53.140;8.904;2022-10-18T10:07:58;102632.34;;;14.11;100.00
11856;BME280;5987;53.140;8.904;2022-10-18T10:11:03;102627.22;;;14.03;100.00
11856;BME280;5987;53.140;8.904;2022-10-18T10:14:15;102641.16;;;14.10;100.00
11856;BME280;5987;53.140;8.904;2022-10-18T10:17:23;102641.69;;;14.26;100.00
11856;BME280;5987;53.140;8.904;2022-10-18T10:20:35;102642.56;;;14.24;100.00
11856;BME280;5987;53.140;8.904;2022-10-18T10:23:50;102640.50;;;14.39;100.00
11856;BME280;5987;53.140;8.904;2022-10-18T10:27:01;102644.47;;;14.55;100.00
11856;BME280;5987;53.140;8.904;2022-10-18T10:30:24;102641.78;;;14.58;100.00
11856;BME280;5987;53.140;8.904;2022-10-18T10:33:35;102656.13;;;14.48;100.00
11856;BME280;5987;53.140;8.904;2022-10-18T10:36:47;102654.69;;;14.35;100.00
11856;BME280;5987;53.140;8.904;2022-10-18T10:40:06;102649.97;;;14.48;100.00
11856;BME280;5987;53.140;8.904;2022-10-18T10:43:23;102648.81;;;14.22;100.00
11856;BME280;5987;53.140;8.904;2022-10-18T10:46:43;102657.59;;;14.22;100.00
11856;BME280;5987;53.140;8.904;2022-10-18T10:49:47;102670.94;;;14.18;100.00
11856;BME280;5987;53.140;8.904;2022-10-18T10:52:53;102659.66;;;14.10;100.00
11856;BME280;5987;53.140;8.904;2022-10-18T10:55:59;102651.94;;;14.00;100.00
11856;BME280;5987;53.140;8.904;2022-10-18T10:59:12;102657.16;;;14.02;100.00
11856;BME280;5987;53.140;8.904;2022-10-18T11:02:21;102661.41;;;14.09;100.00
11856;BME280;5987;53.140;8.904;2022-10-18T11:05:26;102652.84;;;13.98;100.00
11856;BME280;5987;53.140;8.904;2022-10-18T11:08:37;102663.59;;;13.90;100.00
11856;BME280;5987;53.140;8.904;2022-10-18T11:11:58;102661.53;;;14.04;100.00
11856;BME280;5987;53.140;8.904;2022-10-18T11:15:19;102667.06;;;13.92;100.00
11856;BME280;5987;53.140;8.904;2022-10-18T11:18:28;102682.44;;;13.73;100.00
11856;BME280;5987;53.140;8.904;2022-10-18T11:21:32;102687.81;;;13.68;100.00
11856;BME280;5987;53.140;8.904;2022-10-18T11:24:38;102680.28;;;13.48;100.00
11856;BME280;5987;53.140;8.904;2022-10-18T11:27:52;102683.03;;;13.42;100.00
11856;BME280;5987;53.140;8.904;2022-10-18T11:31:10;102678.53;;;13.49;100.00
11856;BME280;5987;53.140;8.904;2022-10-18T11:34:34;102681.13;;;13.50;100.00
11856;BME280;5987;53.140;8.904;2022-10-18T11:38:05;102672.97;;;13.61;100.00
11856;BME280;5987;53.140;8.904;2022-10-18T11:41:30;102671.66;;;13.84;100.00
11856;BME280;5987;53.140;8.904;2022-10-18T11:44:44;102670.66;;;13.89;100.00
11856;BME280;5987;53.140;8.904;2022-10-18T11:47:58;102666.91;;;14.00;100.00
11856;BME280;5987;53.140;8.904;2022-10-18T11:51:14;102666.84;;;14.42;100.00
11856;BME280;5987;53.140;8.904;2022-10-18T11:55:00;102668.78;;;14.34;100.00
11856;BME280;5987;53.140;8.904;2022-10-18T11:58:28;102665.25;;;14.35;100.00
11856;BME280;5987;53.140;8.904;2022-10-18T12:01:42;102663.63;;;14.29;100.00
11856;BME280;5987;53.140;8.904;2022-10-18T12:04:56;102666.06;;;14.37;100.00
11856;BME280;5987;53.140;8.904;2022-10-18T12:08:25;102658.84;;;14.45;100.00
11856;BME280;5987;53.140;8.904;2022-10-18T12:11:38;102658.03;;;14.43;100.00
11856;BME280;5987;53.140;8.904;2022-10-18T12:14:53;102657.13;;;14.43;100.00
11856;BME280;5987;53.140;8.904;2022-10-18T12:18:04;102656.44;;;14.34;100.00
11856;BME280;5987;53.140;8.904;2022-10-18T12:21:12;102652.03;;;14.35;100.00
11856;BME280;5987;53.140;8.904;2022-10-18T12:24:20;102651.56;;;14.55;100.00
11856;BME280;5987;53.140;8.904;2022-10-18T12:27:38;102656.41;;;14.36;100.00
11856;BME280;5987;53.140;8.904;2022-10-18T12:30:56;102651.19;;;14.33;100.00
11856;BME280;5987;53.140;8.904;2022-10-18T12:34:24;102651.34;;;14.27;100.00
11856;BME280;5987;53.140;8.904;2022-10-18T12:37:59;102651.19;;;14.33;100.00
11856;BME280;5987;53.140;8.904;2022-10-18T12:41:19;102663.91;;;14.54;100.00
11856;BME280;5987;53.140;8.904;2022-10-18T12:44:29;102665.50;;;14.62;100.00
11856;BME280;5987;53.140;8.904;2022-10-18T12:47:35;102668.63;;;14.79;100.00
11856;BME280;5987;53.140;8.904;2022-10-18T12:50:42;102668.44;;;14.49;100.00
11856;BME280;5987;53.140;8.904;2022-10-18T12:53:51;102666.69;;;14.48;100.00
11856;BME280;5987;53.140;8.904;2022-10-18T12:56:58;102665.88;;;14.46;100.00
11856;BME280;5987;53.140;8.904;2022-10-18T13:00:03;102673.00;;;14.43;100.00
11856;BME280;5987;53.140;8.904;2022-10-18T13:03:53;102670.06;;;14.55;100.00
11856;BME280;5987;53.140;8.904;2022-10-18T13:07:21;102662.72;;;14.68;100.00
11856;BME280;5987;53.140;8.904;2022-10-18T13:10:35;102664.25;;;14.78;100.00
11856;BME280;5987;53.140;8.904;2022-10-18T13:14:00;102659.91;;;14.75;100.00
11856;BME280;5987;53.140;8.904;2022-10-18T13:17:27;102652.03;;;14.74;100.00
11856;BME280;5987;53.140;8.904;2022-10-18T13:20:43;102651.22;;;14.70;100.00
11856;BME280;5987;53.140;8.904;2022-10-18T13:24:19;102663.09;;;14.88;100.00
11856;BME280;5987;53.140;8.904;2022-10-18T13:27:39;102658.03;;;14.79;100.00
11856;BME280;5987;53.140;8.904;2022-10-18T13:30:54;102658.28;;;14.70;100.00
11856;BME280;5987;53.140;8.904;2022-10-18T13:34:25;102649.03;;;14.50;100.00
11856;BME280;5987;53.140;8.904;2022-10-18T13:37:31;102652.66;;;14.46;100.00
11856;BME280;5987;53.140;8.904;2022-10-18T13:40:36;102656.06;;;14.50;100.00
11856;BME280;5987;53.140;8.904;2022-10-18T13:44:10;102653.50;;;14.47;100.00
11856;BME280;5987;53.140;8.904;2022-10-18T13:47:31;102660.47;;;14.51;100.00
11856;BME280;5987;53.140;8.904;2022-10-18T13:50:40;102657.44;;;14.68;100.00
11856;BME280;5987;53.140;8.904;2022-10-18T13:53:56;102657.44;;;14.68;100.00
11856;BME280;5987;53.140;8.904;2022-10-18T13:57:21;102662.84;;;14.63;100.00
11856;BME280;5987;53.140;8.904;2022-10-18T14:00:48;102661.75;;;14.72;100.00
11856;BME280;5987;53.140;8.904;2022-10-18T14:04:38;102662.66;;;14.71;100.00
11856;BME280;5987;53.140;8.904;2022-10-18T14:07:48;102665.75;;;14.51;100.00
11856;BME280;5987;53.140;8.904;2022-10-18T14:11:02;102671.19;;;14.45;100.00
11856;BME280;5987;53.140;8.904;2022-10-18T14:14:16;102663.59;;;14.31;100.00
11856;BME280;5987;53.140;8.904;2022-10-18T14:17:32;102677.16;;;14.15;100.00
11856;BME280;5987;53.140;8.904;2022-10-18T14:20:42;102671.00;;;14.13;100.00
11856;BME280;5987;53.140;8.904;2022-10-18T14:24:19;102679.59;;;13.84;100.00
11856;BME280;5987;53.140;8.904;2022-10-18T14:27:26;102685.91;;;13.75;100.00
11856;BME280;5987;53.140;8.904;2022-10-18T14:30:31;102682.53;;;13.67;100.00
11856;BME280;5987;53.140;8.904;2022-10-18T14:33:37;102690.53;;;13.64;100.00
11856;BME280;5987;53.140;8.904;2022-10-18T14:36:45;102685.19;;;13.68;100.00
11856;BME280;5987;53.140;8.904;2022-10-18T14:39:50;102678.84;;;13.77;100.00
11856;BME280;5987;53.140;8.904;2022-10-18T14:42:55;102676.06;;;13.83;100.00
11856;BME280;5987;53.140;8.904;2022-10-18T14:46:22;102673.41;;;13.83;100.00
11856;BME280;5987;53.140;8.904;2022-10-18T14:49:32;102671.66;;;13.82;100.00
11856;BME280;5987;53.140;8.904;2022-10-18T14:52:35;102670.03;;;13.77;100.00
11856;BME280;5987;53.140;8.904;2022-10-18T14:55:40;102675.38;;;13.73;100.00
11856;BME280;5987;53.140;8.904;2022-10-18T14:58:47;102679.84;;;13.71;100.00
11856;BME280;5987;53.140;8.904;2022-10-18T15:01:56;102678.31;;;13.58;100.00
11856;BME280;5987;53.140;8.904;2022-10-18T15:05:07;102689.13;;;13.47;100.00
11856;BME280;5987;53.140;8.904;2022-10-18T15:08:11;102678.75;;;13.36;100.00
11856;BME280;5987;53.140;8.904;2022-10-18T15:11:16;102688.56;;;13.27;100.00
11856;BME280;5987;53.140;8.904;2022-10-18T15:14:21;102687.81;;;13.20;100.00
11856;BME280;5987;53.140;8.904;2022-10-18T15:17:28;102684.28;;;13.21;100.00
11856;BME280;5987;53.140;8.904;2022-10-18T15:20:35;102679.16;;;13.12;100.00
11856;BME280;5987;53.140;8.904;2022-10-18T15:23:43;102682.84;;;13.03;100.00
11856;BME280;5987;53.140;8.904;2022-10-18T15:26:48;102675.81;;;13.02;100.00
11856;BME280;5987;53.140;8.904;2022-10-18T15:29:54;102671.47;;;13.01;100.00
11856;BME280;5987;53.140;8.904;2022-10-18T15:33:00;102671.47;;;12.98;100.00
11856;BME280;5987;53.140;8.904;2022-10-18T15:36:24;102671.53;;;12.95;100.00
11856;BME280;5987;53.140;8.904;2022-10-18T15:39:29;102668.06;;;12.93;100.00
11856;BME280;5987;53.140;8.904;2022-10-18T15:42:36;102674.91;;;13.03;100.00
11856;BME280;5987;53.140;8.904;2022-10-18T15:45:46;102668.63;;;13.10;100.00
11856;BME280;5987;53.140;8.904;2022-10-18T15:48:50;102660.78;;;13.07;100.00
11856;BME280;5987;53.140;8.904;2022-10-18T15:52:31;102670.72;;;12.93;100.00
11856;BME280;5987;53.140;8.904;2022-10-18T15:55:48;102672.59;;;12.84;100.00
11856;BME280;5987;53.140;8.904;2022-10-18T15:58:54;102674.41;;;12.81;100.00
11856;BME280;5987;53.140;8.904;2022-10-18T16:02:00;102679.00;;;12.68;100.00
11856;BME280;5987;53.140;8.904;2022-10-18T16:05:05;102680.84;;;12.63;100.00
11856;BME280;5987;53.140;8.904;2022-10-18T16:08:21;102686.25;;;12.55;100.00
11856;BME280;5987;53.140;8.904;2022-10-18T16:11:25;102684.34;;;12.65;100.00
11856;BME280;5987;53.140;8.904;2022-10-18T16:14:30;102686.34;;;12.49;100.00
11856;BME280;5987;53.140;8.904;2022-10-18T16:17:35;102690.03;;;12.37;100.00
11856;BME280;5987;53.140;8.904;2022-10-18T16:20:39;102684.81;;;12.34;100.00
11856;BME280;5987;53.140;8.904;2022-10-18T16:23:43;102691.13;;;12.21;100.00
11856;BME280;5987;53.140;8.904;2022-10-18T16:26:47;102689.41;;;12.16;100.00
11856;BME280;5987;53.140;8.904;2022-10-18T16:29:51;102687.75;;;12.12;100.00
11856;BME280;5987;53.140;8.904;2022-10-18T16:32:56;102688.69;;;12.05;100.00
11856;BME280;5987;53.140;8.904;2022-10-18T16:36:00;102689.66;;;11.98;100.00